Time;durP1;ratioP1;P1;durP2;ratioP2;P2;SDS_P1;SDS_P2;PMS_P1;PMS_P2;Temp;Humidity;BMP_temperature;BMP_pressure;BME280_temperature;BME280_humidity;BME280_pressure;Samples;Min_cycle;Max_cycle;Signal;HPM_P1;HPM_P2
2023/11/01 00:00:34;;;;;;;17.40;3.00;;;;;;;;;;5021498;28;20061;-41
2023/11/01 00:03:01;;;;;;;23.75;3.70;;;;;;;;;;5032173;28;20108;-40
2023/11/01 00:05:28;;;;;;;26.13;3.78;;;;;;;;;;5032253;28;20091;-37
2023/11/01 00:07:57;;;;;;;27.08;3.60;;;;;;;;;;5022620;28;20036;-42
2023/11/01 00:10:24;;;;;;;24.65;4.22;;;;;;;;;;5028575;28;20472;-40
2023/11/01 00:12:51;;;;;;;20.92;4.90;;;;;;;;;;5013811;28;20381;-35
2023/11/01 00:15:18;;;;;;;21.08;4.45;;;;;;;;;;5031544;28;20440;-37
2023/11/01 00:17:45;;;;;;;23.17;4.53;;;;;;;;;;5030801;28;20112;-33
2023/11/01 00:20:12;;;;;;;20.67;4.53;;;;;;;;;;5030632;28;20048;-40
2023/11/01 00:22:39;;;;;;;31.00;5.78;;;;;;;;;;5004736;28;20166;-33
2023/11/01 00:27:49;;;;;;;30.42;6.32;;;;;;;;;;5023230;28;20517;-34
2023/11/01 00:30:16;;;;;;;37.45;6.20;;;;;;;;;;5011401;28;20025;-34
2023/11/01 00:32:43;;;;;;;35.15;6.40;;;;;;;;;;5029361;28;20026;-34
2023/11/01 00:35:10;;;;;;;29.38;6.20;;;;;;;;;;5030216;28;20032;-35
2023/11/01 00:37:37;;;;;;;41.65;8.85;;;;;;;;;;5029799;28;20037;-34
2023/11/01 00:40:04;;;;;;;30.98;7.25;;;;;;;;;;5030981;28;20021;-33
2023/11/01 00:42:31;;;;;;;34.97;10.20;;;;;;;;;;5030275;28;20061;-34
2023/11/01 00:44:58;;;;;;;36.90;12.65;;;;;;;;;;5030503;28;20514;-34
2023/11/01 00:47:25;;;;;;;36.17;13.55;;;;;;;;;;5030634;28;20032;-33
2023/11/01 00:49:52;;;;;;;48.38;14.57;;;;;;;;;;5030474;28;20029;-34
2023/11/01 00:52:19;;;;;;;42.63;13.48;;;;;;;;;;5028207;28;20494;-34
2023/11/01 00:54:46;;;;;;;36.80;13.82;;;;;;;;;;5029693;28;20029;-34
2023/11/01 00:57:13;;;;;;;42.38;14.35;;;;;;;;;;5030859;28;20119;-34
2023/11/01 00:59:40;;;;;;;34.88;12.73;;;;;;;;;;5030671;28;20132;-34
2023/11/01 01:02:07;;;;;;;46.20;13.40;;;;;;;;;;5029819;28;20467;-34
2023/11/01 01:04:34;;;;;;;32.55;12.82;;;;;;;;;;5030718;28;20454;-34
2023/11/01 01:07:01;;;;;;;35.13;12.75;;;;;;;;;;5031097;28;20391;-34
2023/11/01 01:09:28;;;;;;;30.13;12.63;;;;;;;;;;5030893;28;20466;-33
2023/11/01 01:11:55;;;;;;;36.20;11.13;;;;;;;;;;5031326;28;20363;-34
2023/11/01 01:14:22;;;;;;;34.33;11.80;;;;;;;;;;5030152;28;20033;-34
2023/11/01 01:16:50;;;;;;;32.17;11.20;;;;;;;;;;5030316;28;20498;-34
2023/11/01 01:19:17;;;;;;;34.53;10.40;;;;;;;;;;5029665;28;20096;-34
2023/11/01 01:21:44;;;;;;;30.63;10.85;;;;;;;;;;5030829;28;20025;-34
2023/11/01 01:24:11;;;;;;;31.35;9.90;;;;;;;;;;5030630;28;20040;-35
2023/11/01 01:26:38;;;;;;;25.73;9.73;;;;;;;;;;5030684;28;20057;-34
2023/11/01 01:29:05;;;;;;;25.77;9.90;;;;;;;;;;5030954;28;20058;-34
2023/11/01 01:31:32;;;;;;;33.85;10.48;;;;;;;;;;5031265;28;20026;-34
2023/11/01 01:33:59;;;;;;;27.25;9.65;;;;;;;;;;5031115;28;20506;-33
2023/11/01 01:36:27;;;;;;;21.98;8.75;;;;;;;;;;5030474;28;20040;-34
2023/11/01 01:38:54;;;;;;;28.15;8.65;;;;;;;;;;5031007;28;20025;-33
2023/11/01 01:41:21;;;;;;;36.25;9.27;;;;;;;;;;5028883;28;20087;-33
2023/11/01 01:43:48;;;;;;;29.95;8.80;;;;;;;;;;5030933;28;20038;-34
2023/11/01 01:46:16;;;;;;;42.55;8.75;;;;;;;;;;5030719;28;20033;-34
2023/11/01 01:48:44;;;;;;;30.63;8.52;;;;;;;;;;5021063;28;20404;-34
2023/11/01 01:51:12;;;;;;;26.60;8.25;;;;;;;;;;5021233;28;20025;-33
2023/11/01 01:53:45;;;;;;;34.97;9.55;;;;;;;;;;5020475;28;20026;-33
2023/11/01 01:56:13;;;;;;;35.83;8.02;;;;;;;;;;5021436;28;20037;-34
2023/11/01 01:58:41;;;;;;;25.92;7.88;;;;;;;;;;5023926;28;20499;-34
2023/11/01 02:01:09;;;;;;;25.92;8.05;;;;;;;;;;5025434;28;20029;-33
2023/11/01 02:03:37;;;;;;;28.48;7.45;;;;;;;;;;5024377;28;20061;-34
2023/11/01 02:06:05;;;;;;;25.65;8.05;;;;;;;;;;5023273;28;20037;-33
2023/11/01 02:08:32;;;;;;;28.13;8.15;;;;;;;;;;5024233;28;20108;-34
2023/11/01 02:11:00;;;;;;;23.15;6.82;;;;;;;;;;5021910;28;20053;-33
2023/11/01 02:13:27;;;;;;;28.08;7.20;;;;;;;;;;5021502;28;20038;-34
2023/11/01 02:15:54;;;;;;;18.70;6.57;;;;;;;;;;5021254;28;20419;-34
2023/11/01 02:18:21;;;;;;;24.92;7.05;;;;;;;;;;5022063;28;20386;-34
2023/11/01 02:20:48;;;;;;;25.17;6.93;;;;;;;;;;5021107;28;20617;-33
2023/11/01 02:23:16;;;;;;;25.42;6.88;;;;;;;;;;5023294;28;20025;-33
2023/11/01 02:25:43;;;;;;;22.65;6.95;;;;;;;;;;5024844;28;20045;-33
2023/11/01 02:28:11;;;;;;;19.75;6.13;;;;;;;;;;5019697;28;20099;-33
2023/11/01 02:30:42;;;;;;;19.00;6.18;;;;;;;;;;5014862;28;20128;-34
2023/11/01 02:33:09;;;;;;;21.88;6.63;;;;;;;;;;5014719;28;20100;-34
2023/11/01 02:35:37;;;;;;;19.40;6.38;;;;;;;;;;4996782;28;20029;-34
2023/11/01 02:38:04;;;;;;;21.88;5.82;;;;;;;;;;5014589;28;20104;-35
2023/11/01 02:40:31;;;;;;;18.40;6.35;;;;;;;;;;5014657;28;20036;-34
2023/11/01 02:42:58;;;;;;;21.35;5.97;;;;;;;;;;5014568;28;20026;-34
2023/11/01 02:45:25;;;;;;;16.20;5.88;;;;;;;;;;5014481;28;20037;-34
2023/11/01 02:47:52;;;;;;;14.85;5.05;;;;;;;;;;5014547;28;20067;-34
2023/11/01 02:50:19;;;;;;;13.63;5.35;;;;;;;;;;5014474;28;20491;-34
2023/11/01 02:52:47;;;;;;;20.58;6.07;;;;;;;;;;5014245;28;20496;-34
2023/11/01 02:55:15;;;;;;;12.45;5.30;;;;;;;;;;5014276;28;20026;-34
2023/11/01 02:57:42;;;;;;;14.60;5.47;;;;;;;;;;5014343;28;20049;-34
2023/11/01 03:00:18;;;;;;;12.48;4.68;;;;;;;;;;5014295;28;20116;-34
2023/11/01 03:02:47;;;;;;;16.63;4.90;;;;;;;;;;5014048;28;20060;-34
2023/11/01 03:05:14;;;;;;;15.40;5.22;;;;;;;;;;5013165;28;20045;-34
2023/11/01 03:07:41;;;;;;;19.20;5.45;;;;;;;;;;5014059;28;20507;-34
2023/11/01 03:10:09;;;;;;;13.48;4.85;;;;;;;;;;5014078;28;20026;-34
2023/11/01 03:12:40;;;;;;;11.70;4.20;;;;;;;;;;5014017;28;20512;-33
2023/11/01 03:15:07;;;;;;;13.27;4.68;;;;;;;;;;5013841;28;20480;-34
2023/11/01 03:17:37;;;;;;;14.52;4.85;;;;;;;;;;5013677;28;20033;-34
2023/11/01 03:20:05;;;;;;;14.02;4.03;;;;;;;;;;5013845;28;20112;-33
2023/11/01 03:22:32;;;;;;;15.57;4.35;;;;;;;;;;5013628;28;20045;-33
2023/11/01 03:24:59;;;;;;;11.63;4.25;;;;;;;;;;5013670;28;20092;-33
2023/11/01 03:27:26;;;;;;;13.02;4.38;;;;;;;;;;5013348;28;20064;-33
2023/11/01 03:29:54;;;;;;;14.15;4.57;;;;;;;;;;5013713;28;20033;-34
2023/11/01 03:32:24;;;;;;;10.73;3.70;;;;;;;;;;5013438;28;20065;-33
2023/11/01 03:34:52;;;;;;;10.32;3.95;;;;;;;;;;5013609;28;20038;-33
2023/11/01 03:37:19;;;;;;;12.18;3.88;;;;;;;;;;5013329;28;20109;-34
2023/11/01 03:39:46;;;;;;;10.10;3.45;;;;;;;;;;5013523;28;20080;-34
2023/11/01 03:42:13;;;;;;;11.77;4.03;;;;;;;;;;5013250;28;20033;-34
2023/11/01 03:44:40;;;;;;;10.95;4.20;;;;;;;;;;5013295;28;20518;-34
2023/11/01 03:47:07;;;;;;;9.63;3.60;;;;;;;;;;5013208;28;20026;-34
2023/11/01 03:49:34;;;;;;;8.57;3.65;;;;;;;;;;5013317;28;20506;-33
2023/11/01 03:52:04;;;;;;;7.82;3.00;;;;;;;;;;5013318;28;20117;-33
2023/11/01 03:54:34;;;;;;;7.43;3.42;;;;;;;;;;5013128;28;20032;-33
2023/11/01 03:57:02;;;;;;;10.52;3.75;;;;;;;;;;5013081;28;20114;-33
2023/11/01 03:59:30;;;;;;;9.70;3.22;;;;;;;;;;5013125;28;20384;-33
2023/11/01 04:01:57;;;;;;;12.15;3.60;;;;;;;;;;5013024;28;20033;-33
2023/11/01 04:04:24;;;;;;;9.48;3.20;;;;;;;;;;5013080;28;20080;-34
2023/11/01 04:06:51;;;;;;;8.23;3.25;;;;;;;;;;5012849;28;20034;-33
2023/11/01 04:09:18;;;;;;;7.18;2.80;;;;;;;;;;5012977;28;20487;-33
2023/11/01 04:11:45;;;;;;;10.00;3.00;;;;;;;;;;5013019;28;20076;-33
2023/11/01 04:14:16;;;;;;;8.43;2.92;;;;;;;;;;5012972;28;20030;-33
2023/11/01 04:16:43;;;;;;;9.05;3.20;;;;;;;;;;5007244;28;20046;-33
2023/11/01 04:19:11;;;;;;;7.88;3.05;;;;;;;;;;5012402;28;20029;-33
2023/11/01 04:21:38;;;;;;;8.48;3.20;;;;;;;;;;5012724;28;20107;-33
2023/11/01 04:24:05;;;;;;;7.47;2.72;;;;;;;;;;5012667;28;20081;-33
2023/11/01 04:26:33;;;;;;;7.20;2.85;;;;;;;;;;5012482;28;20408;-33
2023/11/01 04:29:00;;;;;;;6.25;2.65;;;;;;;;;;5012496;28;20026;-35
2023/11/01 04:31:27;;;;;;;5.63;2.53;;;;;;;;;;5012839;28;20029;-33
2023/11/01 04:33:54;;;;;;;9.00;2.75;;;;;;;;;;5012449;28;20042;-33
2023/11/01 04:36:27;;;;;;;5.57;2.63;;;;;;;;;;5012411;28;20101;-33
2023/11/01 04:38:55;;;;;;;6.15;2.40;;;;;;;;;;5012460;28;20030;-33
2023/11/01 04:41:22;;;;;;;6.05;2.53;;;;;;;;;;5012299;28;20034;-33
2023/11/01 04:43:49;;;;;;;6.95;2.53;;;;;;;;;;5012149;28;20026;-33
2023/11/01 04:46:16;;;;;;;5.45;2.38;;;;;;;;;;5012274;28;20042;-33
2023/11/01 04:48:43;;;;;;;6.10;2.15;;;;;;;;;;5012291;28;20049;-33
2023/11/01 04:51:10;;;;;;;5.60;2.28;;;;;;;;;;5012301;28;20025;-34
2023/11/01 04:53:37;;;;;;;7.60;2.60;;;;;;;;;;5012169;28;20029;-33
2023/11/01 04:56:07;;;;;;;6.93;2.40;;;;;;;;;;5012030;28;20022;-33
2023/11/01 04:58:35;;;;;;;7.63;2.35;;;;;;;;;;5012162;28;20026;-33
2023/11/01 05:01:05;;;;;;;6.80;2.35;;;;;;;;;;5012144;28;20037;-33
2023/11/01 05:03:32;;;;;;;4.43;2.00;;;;;;;;;;5011824;28;20037;-33
2023/11/01 05:05:59;;;;;;;7.22;2.50;;;;;;;;;;5011877;28;20057;-33
2023/11/01 05:08:26;;;;;;;6.20;2.35;;;;;;;;;;5012106;28;20040;-33
2023/11/01 05:10:53;;;;;;;5.35;2.13;;;;;;;;;;5012042;28;20598;-33
2023/11/01 05:13:20;;;;;;;5.97;2.00;;;;;;;;;;5011904;28;20526;-33
2023/11/01 05:15:48;;;;;;;4.20;2.28;;;;;;;;;;5011747;28;20053;-33
2023/11/01 05:18:15;;;;;;;4.70;1.80;;;;;;;;;;5011816;28;20030;-33
2023/11/01 05:20:42;;;;;;;6.45;2.25;;;;;;;;;;5011934;28;20534;-33
2023/11/01 05:23:09;;;;;;;6.03;2.13;;;;;;;;;;5011814;28;20088;-33
2023/11/01 05:25:36;;;;;;;8.18;2.13;;;;;;;;;;5011786;28;20038;-33
2023/11/01 05:28:03;;;;;;;4.30;1.83;;;;;;;;;;5011727;28;20058;-33
2023/11/01 05:30:30;;;;;;;5.95;2.15;;;;;;;;;;5015804;28;20554;-33
2023/11/01 05:32:57;;;;;;;3.88;1.65;;;;;;;;;;5015660;28;20117;-33
2023/11/01 05:35:24;;;;;;;5.75;2.05;;;;;;;;;;5015808;28;20472;-33
2023/11/01 05:37:52;;;;;;;4.53;1.90;;;;;;;;;;5015781;28;20041;-33
2023/11/01 05:40:19;;;;;;;4.97;1.75;;;;;;;;;;5015612;28;20554;-33
2023/11/01 05:42:46;;;;;;;4.57;1.60;;;;;;;;;;5015584;28;20025;-34
2023/11/01 05:45:17;;;;;;;4.35;1.60;;;;;;;;;;5015583;28;20041;-33
2023/11/01 05:47:50;;;;;;;3.40;1.52;;;;;;;;;;5015607;28;20100;-33
2023/11/01 05:50:18;;;;;;;7.53;2.17;;;;;;;;;;5015580;28;20041;-33
2023/11/01 05:52:45;;;;;;;3.58;1.40;;;;;;;;;;5015512;28;20641;-33
2023/11/01 05:55:13;;;;;;;4.28;1.60;;;;;;;;;;5015375;28;20539;-33
2023/11/01 05:57:40;;;;;;;4.13;1.60;;;;;;;;;;5015460;28;20392;-33
2023/11/01 06:00:09;;;;;;;5.32;2.20;;;;;;;;;;5015409;28;20058;-33
2023/11/01 06:02:39;;;;;;;5.72;1.90;;;;;;;;;;5033168;28;20042;-33
2023/11/01 06:05:06;;;;;;;4.38;1.60;;;;;;;;;;5035022;28;20507;-33
2023/11/01 06:07:33;;;;;;;4.72;1.42;;;;;;;;;;5034988;28;20029;-33
2023/11/01 06:10:00;;;;;;;3.08;1.42;;;;;;;;;;5035001;28;20028;-33
2023/11/01 06:12:27;;;;;;;4.68;1.50;;;;;;;;;;5034915;28;20033;-33
2023/11/01 06:14:54;;;;;;;3.17;1.40;;;;;;;;;;5034858;28;20022;-33
2023/11/01 06:17:23;;;;;;;4.47;1.38;;;;;;;;;;5034853;28;20112;-33
2023/11/01 06:19:50;;;;;;;2.45;1.20;;;;;;;;;;5034739;28;20022;-33
2023/11/01 06:22:17;;;;;;;2.05;1.20;;;;;;;;;;5034432;28;20399;-33
2023/11/01 06:24:45;;;;;;;3.20;1.30;;;;;;;;;;5034601;28;20060;-32
2023/11/01 06:27:12;;;;;;;5.70;1.60;;;;;;;;;;5034084;28;20068;-33
2023/11/01 06:29:42;;;;;;;3.35;1.33;;;;;;;;;;5034669;28;20033;-32
2023/11/01 06:32:09;;;;;;;4.22;1.50;;;;;;;;;;5034297;28;20080;-32
2023/11/01 06:34:37;;;;;;;4.50;1.40;;;;;;;;;;5034555;28;20083;-33
2023/11/01 06:37:04;;;;;;;4.30;1.45;;;;;;;;;;5034490;28;20091;-33
2023/11/01 06:39:31;;;;;;;3.10;1.30;;;;;;;;;;5034243;28;20105;-33
2023/11/01 06:41:58;;;;;;;3.15;1.48;;;;;;;;;;5033502;28;20029;-33
2023/11/01 06:44:25;;;;;;;5.07;1.40;;;;;;;;;;5034221;28;20040;-33
2023/11/01 06:46:52;;;;;;;2.55;1.15;;;;;;;;;;5034212;28;20057;-33
2023/11/01 06:49:19;;;;;;;3.33;1.10;;;;;;;;;;5034250;28;20021;-33
2023/11/01 06:51:47;;;;;;;2.85;1.20;;;;;;;;;;5034169;28;20029;-33
2023/11/01 06:54:14;;;;;;;2.22;1.20;;;;;;;;;;5034130;28;20045;-33
2023/11/01 06:56:47;;;;;;;2.42;1.15;;;;;;;;;;5033958;28;20073;-33
2023/11/01 06:59:14;;;;;;;3.00;1.20;;;;;;;;;;5034058;28;20025;-33
2023/11/01 07:01:41;;;;;;;3.85;1.63;;;;;;;;;;5034062;28;20052;-33
2023/11/01 07:04:09;;;;;;;2.38;1.25;;;;;;;;;;5033980;28;20025;-33
2023/11/01 07:06:36;;;;;;;2.20;1.30;;;;;;;;;;5033664;28;20120;-33
2023/11/01 07:09:05;;;;;;;3.28;1.08;;;;;;;;;;5033880;28;20501;-33
2023/11/01 07:11:32;;;;;;;3.22;1.38;;;;;;;;;;5033970;28;20072;-33
2023/11/01 07:13:59;;;;;;;2.78;1.00;;;;;;;;;;5033831;28;20037;-33
2023/11/01 07:16:26;;;;;;;3.47;1.25;;;;;;;;;;5033776;28;20436;-33
2023/11/01 07:18:53;;;;;;;3.45;0.93;;;;;;;;;;5033604;28;20496;-33
2023/11/01 07:21:20;;;;;;;1.58;0.90;;;;;;;;;;5033727;28;20120;-34
2023/11/01 07:23:47;;;;;;;1.80;1.10;;;;;;;;;;5033576;28;20026;-34
2023/11/01 07:26:14;;;;;;;2.05;0.98;;;;;;;;;;5033320;28;20403;-35
2023/11/01 07:28:41;;;;;;;2.42;1.10;;;;;;;;;;5015675;28;20498;-34
2023/11/01 07:31:08;;;;;;;2.65;0.80;;;;;;;;;;5033424;28;20141;-35
2023/11/01 07:33:37;;;;;;;3.70;0.90;;;;;;;;;;5033454;28;20033;-34
2023/11/01 07:36:04;;;;;;;2.00;0.95;;;;;;;;;;5033152;28;20041;-34
2023/11/01 07:38:32;;;;;;;2.95;1.10;;;;;;;;;;5015793;28;20026;-35
2023/11/01 07:40:58;;;;;;;3.65;1.10;;;;;;;;;;5033364;28;20021;-34
2023/11/01 07:43:25;;;;;;;5.53;1.08;;;;;;;;;;5033047;28;20087;-33
2023/11/01 07:45:56;;;;;;;2.17;1.08;;;;;;;;;;5033131;28;20041;-35
2023/11/01 07:48:22;;;;;;;2.00;0.90;;;;;;;;;;5033193;28;20403;-35
2023/11/01 07:50:49;;;;;;;2.50;0.85;;;;;;;;;;5033127;28;20107;-35
2023/11/01 07:53:17;;;;;;;2.75;0.80;;;;;;;;;;5032862;28;20041;-35
2023/11/01 07:55:44;;;;;;;3.50;1.20;;;;;;;;;;5032732;28;20041;-35
2023/11/01 07:58:11;;;;;;;1.23;0.70;;;;;;;;;;5032947;28;20030;-35
2023/11/01 08:00:38;;;;;;;2.55;1.10;;;;;;;;;;5032978;28;20598;-35
2023/11/01 08:03:05;;;;;;;2.40;0.90;;;;;;;;;;5032645;28;20484;-35
2023/11/01 08:05:32;;;;;;;3.22;1.05;;;;;;;;;;5032735;28;20037;-33
2023/11/01 08:07:59;;;;;;;1.30;0.75;;;;;;;;;;5032781;28;20030;-35
2023/11/01 08:10:26;;;;;;;2.47;0.80;;;;;;;;;;5032750;28;20547;-35
2023/11/01 08:12:53;;;;;;;2.25;0.90;;;;;;;;;;5032692;28;20037;-35
2023/11/01 08:15:20;;;;;;;1.42;0.80;;;;;;;;;;5032442;28;20025;-36
2023/11/01 08:17:47;;;;;;;1.67;0.80;;;;;;;;;;5032721;28;20112;-35
2023/11/01 08:20:14;;;;;;;2.28;0.73;;;;;;;;;;5032527;28;20033;-35
2023/11/01 08:22:41;;;;;;;2.72;1.10;;;;;;;;;;5032462;28;20120;-35
2023/11/01 08:25:08;;;;;;;2.13;0.98;;;;;;;;;;5032253;28;20765;-35
2023/11/01 08:27:36;;;;;;;1.98;0.80;;;;;;;;;;5032306;28;20450;-35
2023/11/01 08:30:03;;;;;;;1.85;1.00;;;;;;;;;;5032423;28;20034;-35
2023/11/01 08:32:30;;;;;;;1.73;0.93;;;;;;;;;;5032296;28;20037;-35
2023/11/01 08:34:57;;;;;;;1.65;1.02;;;;;;;;;;5032081;28;20387;-35
2023/11/01 08:37:25;;;;;;;2.00;1.08;;;;;;;;;;5032284;28;20112;-35
2023/11/01 08:39:52;;;;;;;2.90;1.10;;;;;;;;;;5032213;28;20033;-35
2023/11/01 08:42:19;;;;;;;2.38;0.98;;;;;;;;;;5032142;28;20034;-35
2023/11/01 08:44:46;;;;;;;1.40;0.70;;;;;;;;;;5032099;28;20021;-36
2023/11/01 08:47:32;;;;;;;2.10;0.60;;;;;;;;;;5032099;28;20533;-35
2023/11/01 08:49:59;;;;;;;1.95;0.90;;;;;;;;;;5032041;28;20041;-35
2023/11/01 08:52:27;;;;;;;1.75;0.80;;;;;;;;;;5031834;28;20029;-35
2023/11/01 08:54:53;;;;;;;1.63;0.65;;;;;;;;;;5031777;28;20033;-33
2023/11/01 08:57:22;;;;;;;2.08;1.00;;;;;;;;;;5031844;28;20021;-33
2023/11/01 08:59:52;;;;;;;1.55;0.65;;;;;;;;;;5031494;28;20037;-33
2023/11/01 09:02:20;;;;;;;3.05;0.80;;;;;;;;;;5031814;28;20041;-33
2023/11/01 09:04:47;;;;;;;1.73;0.82;;;;;;;;;;5031234;28;20037;-33
2023/11/01 09:07:14;;;;;;;2.33;0.95;;;;;;;;;;5031852;28;20106;-33
2023/11/01 09:09:41;;;;;;;2.65;0.90;;;;;;;;;;5031736;28;20029;-35
2023/11/01 09:12:08;;;;;;;1.83;0.70;;;;;;;;;;5031728;28;20045;-35
2023/11/01 09:14:36;;;;;;;2.58;0.90;;;;;;;;;;5031645;28;20021;-35
2023/11/01 09:17:03;;;;;;;1.45;0.77;;;;;;;;;;5031772;28;20063;-35
2023/11/01 09:19:30;;;;;;;1.75;0.75;;;;;;;;;;5031694;28;20029;-35
2023/11/01 09:21:57;;;;;;;3.88;0.90;;;;;;;;;;5031427;28;20075;-35
2023/11/01 09:24:24;;;;;;;1.35;0.70;;;;;;;;;;5031586;28;20045;-35
2023/11/01 09:26:51;;;;;;;2.60;0.82;;;;;;;;;;5030848;28;20046;-35
2023/11/01 09:29:18;;;;;;;2.80;0.80;;;;;;;;;;5027555;28;20048;-35
2023/11/01 09:31:45;;;;;;;1.08;0.60;;;;;;;;;;5019938;28;20045;-35
2023/11/01 09:34:12;;;;;;;1.73;0.60;;;;;;;;;;5020661;28;20056;-35
2023/11/01 09:36:43;;;;;;;1.83;0.77;;;;;;;;;;5021950;28;20029;-35
2023/11/01 09:39:11;;;;;;;4.47;0.90;;;;;;;;;;5015697;28;20044;-35
2023/11/01 09:41:41;;;;;;;4.00;0.63;;;;;;;;;;5023398;28;20056;-35
2023/11/01 09:44:09;;;;;;;8.15;1.00;;;;;;;;;;5026349;28;20116;-35
2023/11/01 09:46:36;;;;;;;4.97;1.00;;;;;;;;;;5020650;28;20034;-35
2023/11/01 09:49:04;;;;;;;4.93;0.95;;;;;;;;;;5027127;28;20029;-35
2023/11/01 09:51:32;;;;;;;6.80;1.02;;;;;;;;;;5031326;28;20029;-35
2023/11/01 09:54:01;;;;;;;5.95;1.10;;;;;;;;;;5031123;28;20036;-34
2023/11/01 09:56:33;;;;;;;7.13;1.40;;;;;;;;;;5031177;28;20400;-35
2023/11/01 09:59:03;;;;;;;8.23;1.10;;;;;;;;;;5030734;28;20038;-34
2023/11/01 10:01:30;;;;;;;8.05;1.42;;;;;;;;;;5031220;28;20056;-35
2023/11/01 10:03:58;;;;;;;4.45;1.10;;;;;;;;;;5020829;28;20038;-35
2023/11/01 10:06:25;;;;;;;7.20;1.40;;;;;;;;;;5017112;28;20026;-35
2023/11/01 10:08:52;;;;;;;10.82;1.20;;;;;;;;;;5020562;28;20392;-35
2023/11/01 10:11:20;;;;;;;5.35;1.25;;;;;;;;;;5021591;28;20037;-35
2023/11/01 10:13:48;;;;;;;4.85;1.42;;;;;;;;;;5019886;28;20038;-35
2023/11/01 10:16:15;;;;;;;7.00;1.00;;;;;;;;;;5023106;28;20104;-35
2023/11/01 10:18:43;;;;;;;6.72;1.17;;;;;;;;;;5025225;28;20483;-34
2023/11/01 10:21:10;;;;;;;6.30;1.05;;;;;;;;;;5030310;28;20057;-36
2023/11/01 10:23:37;;;;;;;9.60;1.65;;;;;;;;;;5019897;28;20500;-33
2023/11/01 10:26:05;;;;;;;5.32;1.40;;;;;;;;;;5023451;28;20570;-34
2023/11/01 10:28:41;;;;;;;19.27;1.65;;;;;;;;;;5022578;28;20033;-35
2023/11/01 10:31:08;;;;;;;5.65;0.95;;;;;;;;;;5024065;28;20100;-35
2023/11/01 10:33:35;;;;;;;2.80;0.93;;;;;;;;;;5021889;28;20057;-35
2023/11/01 10:36:03;;;;;;;4.15;1.00;;;;;;;;;;5023561;28;20119;-33
2023/11/01 10:38:32;;;;;;;7.00;1.25;;;;;;;;;;5021931;28;20033;-34
2023/11/01 10:41:03;;;;;;;4.05;1.00;;;;;;;;;;5022334;28;20454;-33
2023/11/01 10:43:30;;;;;;;3.67;1.10;;;;;;;;;;5022578;28;20042;-34
2023/11/01 10:46:01;;;;;;;6.85;1.30;;;;;;;;;;5023934;28;20026;-36
2023/11/01 10:48:29;;;;;;;4.28;1.00;;;;;;;;;;5024443;28;20025;-35
2023/11/01 10:50:59;;;;;;;5.47;1.40;;;;;;;;;;5022990;28;20076;-34
2023/11/01 10:53:26;;;;;;;5.72;0.90;;;;;;;;;;5023459;28;20026;-35
2023/11/01 10:55:53;;;;;;;5.90;1.33;;;;;;;;;;5021986;28;20095;-34
2023/11/01 10:58:24;;;;;;;4.13;1.20;;;;;;;;;;5033059;28;20026;-34
2023/11/01 11:01:09;;;;;;;13.15;1.40;;;;;;;;;;5031960;28;20037;-32
2023/11/01 11:03:54;;;;;;;5.15;1.10;;;;;;;;;;5033662;28;20115;-36
2023/11/01 11:06:25;;;;;;;7.32;1.00;;;;;;;;;;5022401;28;20057;-33
2023/11/01 11:09:32;;;;;;;6.88;1.38;;;;;;;;;;5022328;28;20021;-33
2023/11/01 11:12:14;;;;;;;3.67;0.77;;;;;;;;;;4915291;29;20036;-35
2023/11/01 11:14:42;;;;;;;3.33;0.90;;;;;;;;;;4921560;29;20024;-35
2023/11/01 11:17:10;;;;;;;3.42;0.85;;;;;;;;;;4975070;28;20049;-35
2023/11/01 11:19:55;;;;;;;5.10;0.93;;;;;;;;;;5013790;28;20030;-35
2023/11/01 11:22:22;;;;;;;6.22;1.30;;;;;;;;;;5011791;28;20040;-34
2023/11/01 11:24:55;;;;;;;7.95;1.15;;;;;;;;;;5013035;28;20518;-34
2023/11/01 11:27:40;;;;;;;5.05;1.27;;;;;;;;;;5012021;28;20054;-34
2023/11/01 11:30:07;;;;;;;6.90;1.20;;;;;;;;;;5013118;28;20029;-34
2023/11/01 11:32:35;;;;;;;7.20;1.38;;;;;;;;;;5011759;28;20073;-34
2023/11/01 11:35:24;;;;;;;4.93;1.17;;;;;;;;;;5013137;28;20029;-34
2023/11/01 11:37:51;;;;;;;8.55;2.08;;;;;;;;;;5013637;28;20026;-34
2023/11/01 11:40:18;;;;;;;5.70;1.42;;;;;;;;;;5013425;28;20480;-34
2023/11/01 11:42:49;;;;;;;5.05;1.35;;;;;;;;;;5013468;28;20108;-34
2023/11/01 11:45:29;;;;;;;6.40;1.25;;;;;;;;;;5013373;28;20484;-35
2023/11/01 11:47:56;;;;;;;5.85;1.38;;;;;;;;;;5013456;28;20018;-34
2023/11/01 11:50:23;;;;;;;6.82;1.55;;;;;;;;;;5013385;28;20041;-34
2023/11/01 11:52:50;;;;;;;5.45;1.60;;;;;;;;;;5013369;28;20037;-34
2023/11/01 11:55:17;;;;;;;4.90;1.27;;;;;;;;;;5013206;28;20058;-34
2023/11/01 11:57:44;;;;;;;3.33;1.20;;;;;;;;;;5013243;28;20022;-34
2023/11/01 12:00:12;;;;;;;3.78;1.20;;;;;;;;;;5013154;28;20452;-35
2023/11/01 12:02:39;;;;;;;5.00;1.30;;;;;;;;;;5013165;28;20488;-34
2023/11/01 12:05:07;;;;;;;6.40;1.30;;;;;;;;;;5013051;28;20028;-34
2023/11/01 12:07:42;;;;;;;6.85;1.38;;;;;;;;;;5012953;28;20061;-34
2023/11/01 12:10:10;;;;;;;6.47;1.48;;;;;;;;;;5013024;28;20476;-34
2023/11/01 12:12:37;;;;;;;3.17;1.20;;;;;;;;;;5013007;28;20033;-34
2023/11/01 12:15:06;;;;;;;2.85;1.10;;;;;;;;;;5012821;28;20064;-34
2023/11/01 12:17:34;;;;;;;13.45;1.65;;;;;;;;;;5012931;28;20057;-34
2023/11/01 12:20:01;;;;;;;5.88;1.73;;;;;;;;;;5012607;28;20037;-34
2023/11/01 12:22:28;;;;;;;13.23;1.67;;;;;;;;;;5011263;28;20428;-34
2023/11/01 12:24:55;;;;;;;6.32;1.50;;;;;;;;;;5012727;28;20032;-34
2023/11/01 12:27:32;;;;;;;4.40;1.10;;;;;;;;;;5012537;28;20096;-34
2023/11/01 12:30:00;;;;;;;3.85;0.95;;;;;;;;;;5012600;28;20030;-34
2023/11/01 12:32:27;;;;;;;4.82;1.23;;;;;;;;;;5012772;28;20042;-34
2023/11/01 12:34:54;;;;;;;4.95;1.60;;;;;;;;;;5012511;28;20073;-34
2023/11/01 12:37:23;;;;;;;6.75;1.48;;;;;;;;;;5012562;28;20026;-34
2023/11/01 12:40:11;;;;;;;4.88;1.38;;;;;;;;;;5011926;28;20033;-34
2023/11/01 12:42:43;;;;;;;8.85;1.55;;;;;;;;;;5012339;28;20034;-34
2023/11/01 12:45:10;;;;;;;4.82;1.42;;;;;;;;;;5012522;28;20030;-34
2023/11/01 12:47:44;;;;;;;6.15;1.65;;;;;;;;;;5012449;28;20539;-34
2023/11/01 12:50:32;;;;;;;7.40;1.65;;;;;;;;;;5012408;28;20018;-34
2023/11/01 12:52:59;;;;;;;4.57;1.60;;;;;;;;;;5012370;28;20464;-34
2023/11/01 12:55:26;;;;;;;7.43;1.55;;;;;;;;;;5012207;28;20022;-34
2023/11/01 12:57:59;;;;;;;7.45;1.38;;;;;;;;;;5012276;28;20113;-34
2023/11/01 13:00:30;;;;;;;5.88;1.50;;;;;;;;;;5012174;28;20022;-34
2023/11/01 13:02:57;;;;;;;8.77;1.80;;;;;;;;;;5011896;28;20117;-34
2023/11/01 13:05:24;;;;;;;11.32;1.90;;;;;;;;;;5012081;28;20104;-34
2023/11/01 13:07:56;;;;;;;7.18;1.60;;;;;;;;;;5012134;28;20075;-34
2023/11/01 13:10:24;;;;;;;5.38;1.67;;;;;;;;;;5011995;28;20505;-34
2023/11/01 13:12:51;;;;;;;7.22;1.67;;;;;;;;;;5011910;28;20134;-34
2023/11/01 13:15:18;;;;;;;6.10;1.70;;;;;;;;;;5011928;28;20396;-34
2023/11/01 13:17:48;;;;;;;6.00;1.63;;;;;;;;;;5012042;28;20022;-34
2023/11/01 13:20:15;;;;;;;6.68;1.67;;;;;;;;;;5011851;28;20057;-34
2023/11/01 13:22:42;;;;;;;7.10;1.60;;;;;;;;;;5011860;28;20166;-34
2023/11/01 13:25:09;;;;;;;5.45;1.48;;;;;;;;;;5011760;28;20022;-34
2023/11/01 13:27:36;;;;;;;5.60;1.50;;;;;;;;;;5011737;28;20049;-34
2023/11/01 13:30:03;;;;;;;6.00;1.55;;;;;;;;;;5011941;28;20116;-34
2023/11/01 13:32:30;;;;;;;8.07;1.58;;;;;;;;;;5011931;28;20026;-34
2023/11/01 13:34:57;;;;;;;6.95;1.40;;;;;;;;;;5011744;28;20030;-32
2023/11/01 13:37:24;;;;;;;3.70;1.25;;;;;;;;;;5011772;28;20022;-35
2023/11/01 13:39:51;;;;;;;4.38;1.60;;;;;;;;;;5011808;28;20108;-34
2023/11/01 13:42:18;;;;;;;7.32;1.50;;;;;;;;;;5011727;28;20101;-34
2023/11/01 13:44:45;;;;;;;6.22;1.80;;;;;;;;;;5011667;28;20130;-34
2023/11/01 13:47:12;;;;;;;3.50;1.40;;;;;;;;;;5011745;28;20026;-34
2023/11/01 13:49:41;;;;;;;3.55;1.25;;;;;;;;;;5012490;28;20097;-32
2023/11/01 13:52:08;;;;;;;4.88;1.10;;;;;;;;;;5015500;28;20049;-34
2023/11/01 13:54:35;;;;;;;3.10;1.10;;;;;;;;;;5015550;28;20441;-34
2023/11/01 13:57:05;;;;;;;3.65;1.17;;;;;;;;;;4998247;28;20037;-32
2023/11/01 13:59:32;;;;;;;4.28;1.40;;;;;;;;;;5015532;28;20022;-33
2023/11/01 14:01:59;;;;;;;6.95;1.58;;;;;;;;;;5015257;28;20038;-32
2023/11/01 14:04:26;;;;;;;4.15;1.25;;;;;;;;;;5015119;28;20370;-32
2023/11/01 14:06:53;;;;;;;5.75;1.30;;;;;;;;;;5015665;28;20034;-34
2023/11/01 14:09:20;;;;;;;4.88;1.60;;;;;;;;;;5015395;28;20022;-35
2023/11/01 14:11:50;;;;;;;5.80;1.40;;;;;;;;;;5015147;28;20453;-32
2023/11/01 14:14:18;;;;;;;5.25;1.30;;;;;;;;;;5014978;28;20515;-32
2023/11/01 14:16:45;;;;;;;4.13;1.15;;;;;;;;;;5015230;28;20097;-34
2023/11/01 14:19:12;;;;;;;3.88;1.02;;;;;;;;;;5015259;28;20428;-34
2023/11/01 14:21:39;;;;;;;9.68;1.25;;;;;;;;;;5014971;28;20088;-34
2023/11/01 14:24:07;;;;;;;8.13;1.65;;;;;;;;;;5014949;28;20500;-34
2023/11/01 14:26:34;;;;;;;5.07;1.30;;;;;;;;;;5014632;28;20049;-34
2023/11/01 14:29:01;;;;;;;4.03;1.17;;;;;;;;;;5015010;28;20058;-34
2023/11/01 14:31:28;;;;;;;3.92;1.02;;;;;;;;;;5014948;28;20033;-32
2023/11/01 14:33:55;;;;;;;4.88;1.40;;;;;;;;;;5014747;28;20038;-34
2023/11/01 14:36:22;;;;;;;5.25;1.60;;;;;;;;;;5014785;28;20018;-34
2023/11/01 14:38:49;;;;;;;3.70;1.25;;;;;;;;;;5014757;28;20046;-34
2023/11/01 14:41:17;;;;;;;6.35;1.20;;;;;;;;;;5014614;28;20081;-34
2023/11/01 14:43:45;;;;;;;3.72;1.02;;;;;;;;;;5014629;28;20034;-34
2023/11/01 14:46:13;;;;;;;4.90;1.30;;;;;;;;;;5014458;28;20034;-34